METAR AND TAF INFORMATION
METAR FOR ZWWW
ADDS - METARS form results

(2045 UTC 20 September 2018)
Data provider http://aviationweather.gov/metar/data/
 
METAR text: ZWWW 202030Z VRB02MPS CAVOK 15/M02 Q1018 NOSIG
Conditions at: ZWWW (URUM-QI/DIWOPU , CN) observed 2030 UTC 20 September 2018
Temperature: 15.0°C (59°F)
Dewpoint: -2.0°C (28°F) [RH = 31%]
Pressure (altimeter): 30.06 inches Hg (1018.0 mb)
Winds: variable direction winds at 5 MPH (4 knots; 2.1 m/s)
Visibility: 6 or more miles (10+ km)
Ceiling: ceiling and visibility are OK
Clouds: unknown
Weather: no significant weather observed at this time

METAR text: ZWWW 202000Z 16004MPS CAVOK 15/M03 Q1018 NOSIG
Conditions at: ZWWW (URUM-QI/DIWOPU , CN) observed 2000 UTC 20 September 2018
Temperature: 15.0°C (59°F)
Dewpoint: -3.0°C (27°F) [RH = 29%]
Pressure (altimeter): 30.06 inches Hg (1018.0 mb)
Winds: from the SSE (160 degrees) at 9 MPH (8 knots; 4.1 m/s)
Visibility: 6 or more miles (10+ km)
Ceiling: ceiling and visibility are OK
Clouds: unknown
Weather: no significant weather observed at this time

Forecast for: ZWWW (URUM-QI/DIWOPU , CN)
Text: TAF ZWWW 201516Z 2018/2118 18004G09MPS CAVOK TX25/2109Z TN12/2023Z
Forecast period: 1800 UTC 20 September 2018 to 0300 UTC 21 September 2018
Forecast type: FROM: standard forecast or significant change
Winds: from the S (180 degrees) at 9 MPH (8 knots; 4.1 m/s)
gusting to 20 MPH (17 knots; 8.7 m/s)
Visibility: 6 or more miles 10+ km)
Ceiling: unknown
Clouds: missing
Weather: no significant weather forecast for this period
Text: BECMG 2103/2104 36004MPS
Forecast period: 0300 to 1300 UTC 21 September 2018
Forecast type: BECOMING: Conditions expected to become as follows by 0400 UTC 21 September 2018
Winds: from the N (360 degrees) at 9 MPH (8 knots; 4.1 m/s)
Visibility: 6 or more miles 10+ km)
Ceiling: unknown
Clouds: missing
Weather: no significant weather forecast for this period
Text: BECMG 2113/2114 18004MPS
Forecast period: 1300 to 1800 UTC 21 September 2018
Forecast type: BECOMING: Conditions expected to become as follows by 1400 UTC 21 September 2018
Winds: from the S (180 degrees) at 9 MPH (8 knots; 4.1 m/s)
Visibility: 6 or more miles 10+ km)
Ceiling: unknown
Clouds: missing
Weather: no significant weather forecast for this period

 AIRPORT MAP

 RUNWAY INFORMATION
Runway 07 Runway length 11811 ft Runway width 148 ft
Runway elevation 2123 ft Runway displaced threshold 0 ft Runway heading 74
Runway 25 Runway length 11811 ft Runway width 148 ft
Runway elevation 2126 ft Runway displaced threshold 0 ft Runway heading 254

 AIRPORT FREQUENCIES
Type ATIS Name ATIS Frequency 126.7 MHZ
Type GND Name GND Frequency 121.65 MHZ
Type TWR Name TWR Frequency 118.1 MHZ

 AIRPORT NEAR NAVIGATION AIDS
Type NDB Name Fukang Frequency 369 KHZ
Type VOR-DME Name Fukang Frequency 116300 KHZ
Type VOR-DME Name Urumqi Frequency 115700 KHZ